Ashippun, Wisconsin
Current Conditions -  °F | °C
As of 10:35 PM on Saturday 20 Dec 2014 (Local Time) from KRYV Reporting Station
Overcast Overcast  
Wind Chill: 30°   Ceiling: 2300
Heat Index: 30°   Visibility: 7mi
Dew Point: 28°   Wind: 3mph
Humidity: 94%   Direction: 150°SSE
Pressure: 30.2"   Gusts: NA
Location:  43.21°N, 88.52°W
Report Text: KRYV 210435Z AUTO 15003KT 7SM OVC023 M01/M02 A3020 RMK AO2 T10131022
Loading
Personal Weather Stations






























Interactive Weather Map New forecast layout! Learn more

10-Day Weather Forecast

Advertisements
Track Severe Weather on mobile